• Join FlightAware (Why Join?)
  • Login
  • US Flag 
12:04AM EDT


 

Airport Tracker/Info


-or-


 

Live Flight TrackerFlight Track Log ✈ VET90 ✈ 19-Sep-2013 ✈ KPDK - KGMU

Flight Track Log - Related Links

Times and Time Zones

All times are in EDT time to prevent confusion due to time zone crossing. See the VET90 flight status page for this flight to view local times or setup timezone preferences in your user account.

Time Position Orientation Groundspeed Altitude Reporting Facility
EDT Latitude Longitude Course Direction KTS MPH feet Rate Location/Type
10:02PM 33.8333 -84.2833 56° Northeast 168 193 2,300  Level Atlanta TRACON
10:03PM 33.8500 -84.2333 68° East 176 203 3,500 1,200 Climbing Atlanta TRACON
10:04PM 33.8833 -84.1833 51° Northeast 188 216 4,700 1,140 Climbing Atlanta TRACON
10:06PM 33.9000 -84.1000 76° East 191 220 6,200 1,080 Climbing Atlanta TRACON
10:08PM 34.0405 -83.9784 56° Northeast  Level Estimated
10:08PM 33.9319 -83.9736 73° East 182 209 8,700  Level Atlanta Center
10:09PM 33.9236 -83.9061 98° East 188 216 9,000 120 Climbing Atlanta Center
10:10PM 33.9131 -83.8311 100° East 215 247 9,000  Level Atlanta Center
10:11PM 33.9233 -83.7558 81° East 222 255 9,000  Level Atlanta Center
10:12PM 33.9628 -83.6956 52° Northeast 216 249 9,000  Level Atlanta Center
10:13PM 34.0022 -83.6378 51° Northeast 221 254 9,000  Level Atlanta Center
10:14PM 34.0375 -83.5825 52° Northeast 227 261 9,000  Level Atlanta Center
10:15PM 34.0769 -83.5247 50° Northeast 227 261 9,000  Level Atlanta Center
10:16PM 34.1206 -83.4642 49° Northeast 227 261 9,000  Level Atlanta Center
10:17PM 34.1600 -83.4011 53° Northeast 232 267 9,100  Climbing Atlanta Center
10:18PM 34.1972 -83.3381 54° Northeast 232 267 9,000 -60 Descending Atlanta Center
10:19PM 34.2386 -83.2775 50° Northeast 227 261 9,000  Level Atlanta Center
10:20PM 34.2800 -83.2217 48° Northeast 227 261 9,000  Level Atlanta Center
10:21PM 34.3211 -83.1586 52° Northeast 227 261 9,000  Level Atlanta Center
10:22PM 34.3603 -83.0953 53° Northeast 227 261 9,000  Level Atlanta Center
10:23PM 34.4017 -83.0367 49° Northeast 227 261 9,000  Level Atlanta Center
10:24PM 34.4408 -82.9758 52° Northeast 227 261 9,000  Level Atlanta Center
10:25PM 34.4778 -82.9175 52° Northeast 227 261 9,000  Level Atlanta Center
10:26PM 34.5192 -82.8564 51° Northeast 227 261 9,000 -360 Level Atlanta Center
10:27PM 34.5581 -82.7953 52° Northeast 227 261 8,300 -960 Descending Atlanta Center
10:28PM 34.5992 -82.7317 52° Northeast 227 261 7,100 -1,140 Descending Atlanta Center
10:29PM 34.6342 -82.6781 52° Northeast 211 243 6,100 -1,020 Descending Atlanta Center
10:30PM 34.6750 -82.6142 52° Northeast 211 243 5,100 -1,020 Descending Atlanta Center
10:31PM 34.7139 -82.5556 51° Northeast 218 251 4,100 -600 Descending Atlanta Center
10:32PM 34.7508 -82.5042 49° Northeast 218 251 3,900 -240 Descending Atlanta Center
10:34PM 34.7893 -82.4123 54° Northeast  Level FlightAware Approximate
10:41PM 34.8333 -82.3500 39° Northeast  Level FlightAware Approximate
10:42PM 34.8479 -82.3500 39° Northeast  Level Estimated
10:43PM 34.8479 -82.3500 39° Northeast  Level Estimated
10:44PM 34.8479 -82.3500 39° Northeast  Level Estimated
10:45PM 34.8479 -82.3500 39° Northeast  Level Estimated
10:46PM 34.8479 -82.3500 39° Northeast  Level Estimated